Time;durP1;ratioP1;P1;durP2;ratioP2;P2;SDS_P1;SDS_P2;PMS_P1;PMS_P2;Temp;Humidity;BMP_temperature;BMP_pressure;BME280_temperature;BME280_humidity;BME280_pressure;Samples;Min_cycle;Max_cycle;Signal;HPM_P1;HPM_P2
2022/01/22 00:01:17;;;;;;;16.70;14.83;;;1.30;99.90;;;2.19;100.00;99353.09;5199949;28;20226;-61
2022/01/22 00:03:51;;;;;;;18.47;14.90;;;1.30;99.90;;;2.10;100.00;99350.44;5203422;28;20256;-61
2022/01/22 00:06:24;;;;;;;18.40;14.93;;;1.30;99.90;;;2.01;100.00;99346.88;5202934;28;20231;-61
2022/01/22 00:08:58;;;;;;;17.53;15.73;;;1.20;99.90;;;2.05;100.00;99346.47;5204250;28;20827;-60
2022/01/22 00:11:36;;;;;;;17.03;15.23;;;1.20;99.90;;;1.92;100.00;99354.28;5202743;28;20217;-61
2022/01/22 00:14:24;;;;;;;19.40;16.17;;;1.20;99.90;;;1.88;100.00;99343.66;5196285;28;20224;-61
2022/01/22 00:17:00;;;;;;;18.30;15.83;;;1.20;99.90;;;1.92;100.00;99335.75;5202426;28;20309;-61
2022/01/22 00:19:33;;;;;;;16.90;15.20;;;1.10;99.90;;;1.78;100.00;99330.00;5204188;28;20223;-62
2022/01/22 00:22:06;;;;;;;17.77;15.53;;;1.10;99.90;;;1.76;100.00;99341.53;5202523;28;20213;-60
2022/01/22 00:24:41;;;;;;;19.37;15.70;;;1.10;99.90;;;1.76;100.00;99333.97;5202434;28;20218;-61
2022/01/22 00:27:14;;;;;;;18.23;16.27;;;1.10;99.90;;;1.86;100.00;99335.00;5203033;28;20693;-62
2022/01/22 00:29:47;;;;;;;18.67;16.37;;;1.20;99.90;;;1.89;100.00;99345.44;5196353;28;20229;-61
2022/01/22 00:32:21;;;;;;;18.60;15.77;;;1.20;99.90;;;1.88;100.00;99338.63;5201992;28;20236;-62
2022/01/22 00:34:54;;;;;;;18.03;15.57;;;1.20;99.90;;;1.92;100.00;99330.69;5203144;28;20641;-62
2022/01/22 00:37:27;;;;;;;17.77;15.87;;;1.20;99.90;;;1.86;100.00;99323.34;5199273;28;20226;-62
2022/01/22 00:40:03;;;;;;;19.13;17.13;;;1.20;99.90;;;1.87;100.00;99321.72;5207751;28;20226;-62
2022/01/22 00:42:36;;;;;;;20.33;17.37;;;1.20;99.90;;;1.90;100.00;99324.56;5205577;28;20225;-61
2022/01/22 00:45:10;;;;;;;20.23;17.47;;;1.10;99.90;;;1.88;100.00;99319.34;5206721;28;20696;-62
2022/01/22 00:47:44;;;;;;;18.40;16.37;;;1.10;99.90;;;1.91;100.00;99321.31;5206325;28;20221;-62
2022/01/22 00:50:21;;;;;;;19.97;16.20;;;1.10;99.90;;;1.72;100.00;99319.22;5206777;28;20227;-62
2022/01/22 00:52:54;;;;;;;19.10;16.67;;;1.00;99.90;;;1.84;100.00;99313.81;5203353;28;20691;-62
2022/01/22 00:55:29;;;;;;;18.77;15.90;;;1.10;99.90;;;1.78;100.00;99312.38;5207020;28;20249;-62
2022/01/22 00:58:03;;;;;;;21.97;17.17;;;1.10;99.90;;;1.85;100.00;99305.50;5201382;28;20232;-63
2022/01/22 01:00:36;;;;;;;22.67;17.43;;;1.10;99.90;;;1.88;100.00;99303.31;5205404;28;21446;-61
2022/01/22 01:03:10;;;;;;;19.70;17.07;;;1.20;99.90;;;1.91;100.00;99298.63;5206394;28;20324;-61
2022/01/22 01:05:43;;;;;;;20.50;17.23;;;1.20;99.90;;;1.90;100.00;99302.78;5205770;28;20223;-62
2022/01/22 01:08:16;;;;;;;21.50;17.63;;;1.20;99.90;;;1.96;100.00;99305.09;5206348;28;20221;-62
2022/01/22 01:10:52;;;;;;;23.70;19.20;;;1.30;99.90;;;1.99;100.00;99300.41;5206663;28;20221;-62
2022/01/22 01:13:27;;;;;;;21.70;18.20;;;1.30;99.90;;;1.91;100.00;99312.13;5203255;28;20671;-62
2022/01/22 01:16:03;;;;;;;20.97;17.60;;;1.20;99.90;;;1.92;100.00;99311.44;5206337;28;20214;-62
2022/01/22 01:32:56;;;;;;;23.63;17.97;;;1.40;99.90;;;2.07;100.00;99332.44;5205046;28;20226;-61
2022/01/22 01:35:31;;;;;;;22.07;16.70;;;1.40;99.90;;;2.12;100.00;99336.38;5205018;28;20227;-63
2022/01/22 01:38:05;;;;;;;21.63;17.50;;;1.40;99.90;;;2.13;100.00;99338.16;5205593;28;20221;-62
2022/01/22 01:40:43;;;;;;;21.73;17.13;;;1.40;99.90;;;2.18;100.00;99329.50;5205960;28;20228;-62
2022/01/22 01:43:22;;;;;;;18.13;16.00;;;1.50;99.90;;;2.20;100.00;99338.16;5203549;28;20227;-62
2022/01/22 01:45:55;;;;;;;20.27;16.50;;;1.40;99.90;;;2.19;100.00;99336.34;5199214;28;20319;-61
2022/01/22 01:48:32;;;;;;;20.13;17.23;;;1.50;99.90;;;2.19;100.00;99336.34;5205986;28;20220;-62
2022/01/22 01:51:06;;;;;;;21.13;16.03;;;1.50;99.90;;;2.23;100.00;99335.97;5205685;28;20227;-60
2022/01/22 01:53:52;;;;;;;23.73;18.33;;;1.50;99.90;;;2.23;100.00;99335.97;5204621;28;20229;-63
2022/01/22 01:59:18;;;;;;;19.37;17.10;;;1.50;99.90;;;2.32;100.00;99343.69;5202344;28;20226;-62
2022/01/22 02:01:52;;;;;;;20.13;16.77;;;1.50;99.90;;;2.33;100.00;99337.00;5195132;28;20239;-61
2022/01/22 02:04:25;;;;;;;20.67;17.60;;;1.60;99.90;;;2.35;100.00;99341.50;5203213;28;20250;-61
2022/01/22 02:06:58;;;;;;;20.50;17.07;;;1.60;99.90;;;2.38;100.00;99335.91;5206115;28;20219;-62
2022/01/22 02:09:32;;;;;;;21.67;17.10;;;1.50;99.90;;;2.38;100.00;99335.91;5204928;28;20222;-62
2022/01/22 02:12:12;;;;;;;20.47;16.70;;;1.50;99.90;;;2.36;100.00;99339.88;5200367;28;20571;-62
2022/01/22 02:23:35;;;;;;;23.77;16.83;;;1.50;99.90;;;2.31;100.00;99328.34;5205081;28;21605;-62
2022/01/22 02:26:11;;;;;;;23.67;18.37;;;1.50;99.90;;;2.37;100.00;99329.03;5199652;28;20701;-62
2022/01/22 02:28:47;;;;;;;24.83;17.80;;;1.50;99.90;;;2.50;100.00;99327.16;5205344;28;20216;-62
2022/01/22 02:31:29;;;;;;;21.40;18.03;;;1.50;99.90;;;2.41;100.00;99322.00;5203764;28;20228;-62
2022/01/22 02:34:12;;;;;;;24.53;18.73;;;1.50;99.90;;;2.49;100.00;99320.34;5204011;28;20740;-61
2022/01/22 02:36:57;;;;;;;25.97;19.43;;;1.50;99.90;;;2.44;100.00;99312.25;5204062;28;20221;-60
2022/01/22 02:39:38;;;;;;;23.47;18.33;;;1.50;99.90;;;2.38;100.00;99311.56;5205221;28;20226;-61
2022/01/22 02:42:13;;;;;;;22.40;18.30;;;1.50;99.90;;;2.36;100.00;99312.13;5204204;28;20240;-63
2022/01/22 02:44:47;;;;;;;21.93;17.47;;;1.50;99.90;;;2.35;100.00;99310.34;5204659;28;20222;-61
2022/01/22 02:47:20;;;;;;;25.80;19.50;;;1.60;99.90;;;2.27;100.00;99306.03;5204165;28;20221;-62
2022/01/22 02:49:53;;;;;;;25.77;19.30;;;1.50;99.90;;;2.30;100.00;99296.28;5198876;28;20311;-62
2022/01/22 02:52:26;;;;;;;24.33;19.93;;;1.50;99.90;;;2.35;100.00;99292.66;5202183;28;20230;-61
2022/01/22 02:55:01;;;;;;;21.37;17.97;;;1.50;99.90;;;2.44;100.00;99293.69;5204894;28;20226;-61
2022/01/22 02:57:35;;;;;;;26.03;18.63;;;1.50;99.90;;;2.36;100.00;99290.31;5205676;28;20731;-62
2022/01/22 03:00:13;;;;;;;23.90;19.13;;;1.50;99.90;;;2.37;100.00;99281.09;5205220;28;20229;-62
2022/01/22 03:02:48;;;;;;;26.97;19.53;;;1.50;99.90;;;2.48;100.00;99278.16;5204355;22;20240;-64
2022/01/22 03:05:21;;;;;;;25.10;18.53;;;1.50;99.90;;;2.47;100.00;99278.88;5186231;28;20217;-64
2022/01/22 03:07:57;;;;;;;25.03;18.80;;;1.50;99.90;;;2.41;100.00;99283.25;5191248;28;20224;-65
2022/01/22 03:10:31;;;;;;;23.97;18.80;;;1.60;99.90;;;2.32;100.00;99289.78;5182798;28;20215;-65
2022/01/22 03:13:18;;;;;;;26.07;20.07;;;1.50;99.90;;;2.37;100.00;99294.59;5183727;28;20226;-65
2022/01/22 03:16:02;;;;;;;27.37;19.27;;;1.50;99.90;;;2.40;100.00;99286.47;5176544;28;20229;-64
2022/01/22 03:18:46;;;;;;;24.07;18.70;;;1.60;99.90;;;2.49;100.00;99272.41;5183622;28;20215;-63
2022/01/22 03:21:42;;;;;;;26.17;18.10;;;1.60;99.90;;;2.61;100.00;99270.31;5183606;28;20225;-63
2022/01/22 03:27:21;;;;;;;25.60;18.73;;;1.70;99.90;;;2.66;100.00;99280.19;5183060;28;20224;-64
2022/01/22 03:29:55;;;;;;;26.37;18.40;;;1.70;99.90;;;2.60;100.00;99278.59;5184531;28;20215;-64
2022/01/22 03:32:34;;;;;;;27.20;18.17;;;1.70;99.90;;;2.63;100.00;99273.91;5183011;28;20241;-64
2022/01/22 03:35:12;;;;;;;26.63;18.73;;;1.80;99.90;;;2.69;100.00;99265.41;5182834;28;20311;-65
2022/01/22 03:37:49;;;;;;;25.33;18.57;;;1.80;99.90;;;2.66;100.00;99262.53;5182887;28;20220;-64
2022/01/22 03:40:25;;;;;;;25.60;19.07;;;1.90;99.90;;;2.62;100.00;99265.44;5192060;28;20218;-64
2022/01/22 03:43:00;;;;;;;25.20;18.63;;;1.80;99.90;;;2.57;100.00;99268.16;5180892;28;20234;-64
2022/01/22 03:45:33;;;;;;;24.87;18.13;;;1.80;99.90;;;2.56;100.00;99287.47;5186177;28;20221;-64
2022/01/22 03:48:06;;;;;;;27.93;18.80;;;1.80;99.90;;;2.67;100.00;99279.47;5182810;28;20674;-65
2022/01/22 03:50:39;;;;;;;27.57;19.73;;;1.80;99.90;;;2.71;100.00;99276.53;5182981;28;20221;-65
2022/01/22 03:53:12;;;;;;;25.70;18.50;;;1.80;99.90;;;2.75;100.00;99274.34;5183926;28;20228;-64
2022/01/22 03:55:54;;;;;;;25.10;18.87;;;1.90;99.90;;;2.66;100.00;99285.25;5182515;28;20223;-64
2022/01/22 03:58:29;;;;;;;24.60;19.23;;;1.90;99.90;;;2.70;100.00;99271.34;5184435;28;20698;-64
2022/01/22 04:01:25;;;;;;;22.80;18.90;;;1.90;99.90;;;2.62;100.00;99278.06;5176647;28;20312;-64
2022/01/22 04:04:01;;;;;;;28.53;20.17;;;1.90;99.90;;;2.67;100.00;99278.56;5182338;28;20223;-65
2022/01/22 04:07:25;;;;;;;28.30;19.83;;;1.90;99.90;;;2.65;100.00;99268.28;5183712;28;20224;-65
2022/01/22 04:10:00;;;;;;;25.60;19.13;;;1.90;99.90;;;2.71;100.00;99281.59;5181485;28;20225;-63
2022/01/22 04:12:41;;;;;;;24.40;19.47;;;1.90;99.90;;;2.78;100.00;99275.59;5182809;28;20230;-65
2022/01/22 04:15:20;;;;;;;29.50;21.50;;;1.90;99.90;;;2.74;100.00;99285.19;5183184;28;20218;-64
2022/01/22 04:26:35;;;;;;;31.47;19.77;;;2.00;99.90;;;2.75;100.00;99294.53;5192809;28;20245;-65
2022/01/22 04:29:08;;;;;;;28.50;20.27;;;2.00;99.90;;;2.81;100.00;99290.19;5177654;28;20222;-65
2022/01/22 04:31:42;;;;;;;29.83;21.10;;;2.00;99.90;;;2.91;100.00;99300.56;5182511;28;20309;-64
2022/01/22 04:34:15;;;;;;;28.07;21.43;;;2.10;99.90;;;2.90;100.00;99303.81;5183467;28;20228;-64
2022/01/22 04:36:48;;;;;;;28.73;20.63;;;2.10;99.90;;;2.86;100.00;99305.13;5177892;28;20229;-64
2022/01/22 04:39:23;;;;;;;30.63;22.03;;;2.10;99.90;;;2.90;100.00;99301.28;5186184;28;20231;-64
2022/01/22 04:41:56;;;;;;;28.87;20.13;;;2.10;99.90;;;2.82;100.00;99295.38;5183341;28;20227;-64
2022/01/22 04:44:35;;;;;;;29.93;20.30;;;2.00;99.90;;;2.92;100.00;99297.31;5184498;28;20216;-64
2022/01/22 04:47:28;;;;;;;27.00;21.20;;;2.10;99.90;;;2.98;100.00;99290.41;5188115;28;20222;-65
2022/01/22 04:55:44;;;;;;;29.67;21.53;;;2.10;99.90;;;3.00;100.00;99273.78;5183371;28;20310;-64
2022/01/22 04:58:17;;;;;;;31.40;21.27;;;2.10;99.90;;;3.03;100.00;99281.69;5182846;28;20248;-64
2022/01/22 05:00:50;;;;;;;27.70;20.27;;;2.10;99.90;;;3.05;100.00;99275.19;5179461;28;20597;-64
2022/01/22 05:03:24;;;;;;;28.97;21.80;;;2.10;99.90;;;3.08;100.00;99274.63;5182881;28;20234;-63
2022/01/22 05:05:58;;;;;;;29.23;20.90;;;2.10;99.90;;;3.04;100.00;99269.97;5181319;28;20594;-64
2022/01/22 05:08:31;;;;;;;30.30;20.03;;;2.10;99.90;;;2.93;100.00;99281.44;5190797;28;20230;-64
2022/01/22 05:11:04;;;;;;;29.67;21.87;;;2.10;99.90;;;2.88;100.00;99290.13;5184574;28;20228;-65
2022/01/22 05:13:37;;;;;;;29.67;20.87;;;2.10;99.90;;;2.91;100.00;99298.03;5182100;28;20223;-64
2022/01/22 05:16:10;;;;;;;30.10;20.97;;;2.10;99.90;;;2.88;100.00;99287.59;5182013;28;20691;-64
2022/01/22 05:18:51;;;;;;;28.47;21.40;;;2.10;99.90;;;2.92;100.00;99288.09;5182285;28;20244;-65
2022/01/22 05:21:26;;;;;;;31.07;20.60;;;2.10;99.90;;;2.98;100.00;99289.53;5179801;28;20234;-65
2022/01/22 05:24:03;;;;;;;29.40;20.47;;;2.10;99.90;;;3.01;100.00;99295.78;5182378;28;20222;-64
2022/01/22 05:29:59;;;;;;;28.63;20.17;;;2.20;99.90;;;3.00;100.00;99309.13;5176744;28;20238;-65
2022/01/22 05:32:50;;;;;;;27.83;21.77;;;2.20;99.90;;;2.99;100.00;99312.41;5183283;28;20226;-64
2022/01/22 05:38:15;;;;;;;27.07;20.07;;;2.20;99.90;;;3.19;100.00;99311.16;5185131;28;20238;-64
2022/01/22 05:40:49;;;;;;;27.00;19.63;;;2.10;99.90;;;3.08;100.00;99320.09;5183788;28;20241;-65
2022/01/22 05:43:22;;;;;;;25.30;19.50;;;2.10;99.90;;;3.01;100.00;99318.53;5188797;28;20220;-65
2022/01/22 05:45:55;;;;;;;24.37;19.20;;;2.10;99.90;;;2.97;100.00;99323.06;5184155;28;20742;-65
2022/01/22 05:48:28;;;;;;;25.57;19.40;;;2.20;99.90;;;2.96;100.00;99322.16;5184872;28;20233;-65
2022/01/22 05:51:04;;;;;;;27.37;19.53;;;2.20;99.90;;;3.07;100.00;99320.81;5184438;28;20231;-64
2022/01/22 05:53:48;;;;;;;27.63;19.90;;;2.10;99.90;;;3.07;100.00;99321.72;5196473;28;20229;-66
2022/01/22 06:02:14;;;;;;;28.53;19.70;;;2.20;99.90;;;3.06;100.00;99314.88;5168689;28;20232;-64
2022/01/22 06:04:47;;;;;;;27.70;20.03;;;2.20;99.90;;;3.05;100.00;99329.84;5182517;28;20749;-64
2022/01/22 06:07:21;;;;;;;25.07;20.13;;;2.20;99.90;;;3.09;100.00;99324.38;5189396;28;20598;-66
2022/01/22 06:10:05;;;;;;;25.20;19.77;;;2.20;99.90;;;3.14;100.00;99324.16;5197418;28;20230;-64
2022/01/22 06:12:44;;;;;;;27.97;20.17;;;2.20;99.90;;;3.07;100.00;99328.41;5185829;28;20233;-64
2022/01/22 06:15:18;;;;;;;26.63;20.10;;;2.20;99.90;;;3.02;100.00;99325.34;5184568;28;20224;-64
2022/01/22 06:17:51;;;;;;;24.60;18.80;;;2.20;99.90;;;3.04;100.00;99320.50;5182177;28;20226;-65
2022/01/22 06:20:24;;;;;;;26.50;21.10;;;2.20;99.90;;;3.12;100.00;99328.19;5181694;28;20230;-64
2022/01/22 06:22:58;;;;;;;27.50;20.43;;;2.20;99.90;;;3.12;100.00;99322.22;5181704;28;20876;-64
2022/01/22 06:25:31;;;;;;;28.73;20.57;;;2.20;99.90;;;3.04;100.00;99331.47;5184035;28;20240;-64
2022/01/22 06:28:04;;;;;;;29.27;20.57;;;2.20;99.90;;;3.13;100.00;99331.59;5182565;28;20565;-64
2022/01/22 06:30:37;;;;;;;29.87;20.33;;;2.20;99.90;;;2.95;100.00;99343.09;5182799;28;20227;-65
2022/01/22 06:33:10;;;;;;;27.50;21.03;;;2.20;99.90;;;3.00;100.00;99347.00;5180209;28;20222;-64
2022/01/22 06:35:44;;;;;;;25.17;19.33;;;2.20;99.90;;;3.07;100.00;99346.97;5179839;28;20312;-64
2022/01/22 06:38:19;;;;;;;28.70;20.10;;;2.20;99.90;;;2.99;100.00;99347.75;5178521;28;20229;-65
2022/01/22 06:43:43;;;;;;;28.67;20.83;;;2.20;99.90;;;3.03;100.00;99354.91;5180549;28;20685;-64
2022/01/22 06:46:16;;;;;;;28.90;20.47;;;2.20;99.90;;;3.11;100.00;99365.88;5175191;28;20317;-65
2022/01/22 06:48:49;;;;;;;30.00;20.97;;;2.20;99.90;;;3.07;100.00;99366.28;5180593;28;20307;-64
2022/01/22 06:51:22;;;;;;;28.07;21.70;;;2.20;99.90;;;3.08;100.00;99358.84;5181647;28;20395;-64
2022/01/22 06:53:57;;;;;;;29.20;20.43;;;2.20;99.90;;;3.17;100.00;99354.81;5178426;28;20229;-64
2022/01/22 06:56:30;;;;;;;25.60;21.70;;;2.20;99.90;;;3.20;100.00;99345.78;5189192;28;20228;-63
2022/01/22 06:59:06;;;;;;;29.87;22.53;;;2.20;99.90;;;3.16;100.00;99353.03;5187309;28;20699;-64
2022/01/22 07:01:40;;;;;;;27.70;21.90;;;2.20;99.90;;;3.17;100.00;99348.88;5189902;28;20738;-64
2022/01/22 07:04:15;;;;;;;27.20;21.43;;;2.20;99.90;;;3.09;100.00;99353.09;5182775;28;20228;-64
2022/01/22 07:06:48;;;;;;;28.03;22.03;;;2.20;99.90;;;3.08;100.00;99357.97;5178657;28;20218;-64
2022/01/22 07:09:22;;;;;;;30.67;23.20;;;2.20;99.90;;;3.17;100.00;99359.84;5180551;28;20223;-64
2022/01/22 07:11:55;;;;;;;31.47;22.60;;;2.20;99.90;;;3.17;100.00;99361.50;5177529;28;20216;-64
2022/01/22 07:14:29;;;;;;;33.37;22.00;;;2.20;99.90;;;3.22;100.00;99364.53;5179629;28;20221;-64
2022/01/22 07:17:02;;;;;;;28.33;21.53;;;2.20;99.90;;;3.13;100.00;99367.84;5179058;28;20222;-64
2022/01/22 07:19:39;;;;;;;27.70;21.50;;;2.20;99.90;;;3.03;100.00;99370.06;5195185;28;20701;-63
2022/01/22 07:22:33;;;;;;;29.40;21.43;;;2.20;99.90;;;3.07;100.00;99367.19;5179615;28;20232;-64
2022/01/22 07:25:08;;;;;;;28.90;21.43;;;2.20;99.90;;;3.05;100.00;99358.53;5184331;28;20716;-65
2022/01/22 07:27:41;;;;;;;33.03;22.70;;;2.20;99.90;;;3.02;100.00;99359.81;5183824;28;20215;-64
2022/01/22 07:30:15;;;;;;;30.27;22.20;;;2.20;99.90;;;3.02;100.00;99344.66;5184398;28;20224;-63
2022/01/22 07:32:48;;;;;;;30.27;22.20;;;2.20;99.90;;;2.99;100.00;99352.81;5172392;28;20221;-64
2022/01/22 07:35:21;;;;;;;28.57;22.03;;;2.20;99.90;;;3.11;100.00;99349.09;5178397;28;20228;-64
2022/01/22 07:37:54;;;;;;;26.13;20.07;;;2.10;99.90;;;3.07;100.00;99352.03;5175672;28;20222;-63
2022/01/22 07:40:29;;;;;;;31.60;21.27;;;2.10;99.90;;;3.11;100.00;99355.78;5175677;28;20224;-63
2022/01/22 07:43:02;;;;;;;31.57;20.83;;;2.20;99.90;;;3.06;100.00;99364.47;5179428;28;20227;-63
2022/01/22 07:45:36;;;;;;;26.13;20.07;;;2.20;99.90;;;3.02;100.00;99368.28;5186453;28;20263;-63
2022/01/22 07:48:08;;;;;;;28.23;21.00;;;2.20;99.90;;;3.03;100.00;99372.59;5190561;28;20224;-63
2022/01/22 07:50:42;;;;;;;28.27;18.50;;;2.20;99.90;;;3.03;100.00;99377.66;5180712;28;20220;-63
2022/01/22 07:53:15;;;;;;;25.83;20.13;;;2.20;99.90;;;3.04;100.00;99391.22;5178652;28;20239;-63
2022/01/22 07:55:49;;;;;;;27.60;20.27;;;2.20;99.90;;;2.95;100.00;99391.09;5189875;28;20218;-63
2022/01/22 07:58:22;;;;;;;24.93;19.23;;;2.20;99.90;;;2.93;100.00;99392.53;5177849;28;20220;-63
2022/01/22 08:00:55;;;;;;;24.67;18.50;;;2.20;99.90;;;3.03;100.00;99395.31;5179961;28;20232;-64
2022/01/22 08:03:29;;;;;;;25.30;20.37;;;2.30;99.90;;;3.20;100.00;99382.03;5182433;28;20233;-64
2022/01/22 08:06:02;;;;;;;25.03;18.80;;;2.30;99.90;;;3.14;100.00;99374.69;5182382;28;20253;-63
2022/01/22 08:08:37;;;;;;;26.47;19.70;;;2.20;99.90;;;3.19;100.00;99377.72;5191177;28;20224;-63
2022/01/22 08:11:11;;;;;;;26.33;19.83;;;2.30;99.90;;;3.16;100.00;99382.44;5189994;28;20219;-64
2022/01/22 08:13:44;;;;;;;26.40;19.60;;;2.30;99.90;;;3.03;100.00;99394.44;5198741;28;20662;-64
2022/01/22 08:16:17;;;;;;;24.43;18.97;;;2.30;99.90;;;3.07;100.00;99406.69;5179319;28;20215;-63
2022/01/22 08:18:51;;;;;;;22.10;18.07;;;2.30;99.90;;;3.06;100.00;99408.34;5176827;28;20356;-64
2022/01/22 08:21:24;;;;;;;24.47;18.13;;;2.30;99.90;;;3.10;100.00;99397.81;5179116;28;20240;-63
2022/01/22 08:23:57;;;;;;;29.27;19.70;;;2.30;99.90;;;3.18;100.00;99403.72;5180047;28;20599;-63
2022/01/22 08:26:36;;;;;;;26.80;19.53;;;2.30;99.90;;;3.17;100.00;99405.34;5187416;28;20222;-63
2022/01/22 08:29:09;;;;;;;25.80;18.80;;;2.30;99.90;;;3.24;100.00;99406.03;5177105;28;20708;-63
2022/01/22 08:31:50;;;;;;;23.83;18.27;;;2.40;99.90;;;3.17;100.00;99406.97;5176608;28;20301;-64
2022/01/22 08:37:14;;;;;;;22.57;17.10;;;2.30;99.90;;;3.23;100.00;99409.28;5176270;28;20578;-59
2022/01/22 08:39:47;;;;;;;19.97;17.20;;;2.30;99.90;;;3.24;100.00;99411.09;5182893;28;20220;-62
2022/01/22 08:42:22;;;;;;;22.70;16.57;;;2.30;99.90;;;3.24;100.00;99406.03;5180393;28;20227;-63
2022/01/22 08:44:55;;;;;;;21.80;17.70;;;2.30;99.90;;;3.30;100.00;99414.28;5180449;28;20212;-62
2022/01/22 08:47:28;;;;;;;25.73;18.50;;;2.30;99.90;;;3.22;100.00;99417.59;5182256;28;20237;-64
2022/01/22 08:50:01;;;;;;;25.40;19.67;;;2.30;99.90;;;3.21;100.00;99416.69;5177658;28;20224;-62
2022/01/22 08:52:36;;;;;;;26.00;19.10;;;2.30;99.90;;;3.23;100.00;99419.38;5179917;28;20414;-63
2022/01/22 08:55:10;;;;;;;26.33;20.10;;;2.30;99.90;;;3.08;100.00;99433.75;5182123;28;20224;-65
2022/01/22 08:57:49;;;;;;;26.10;19.07;;;2.30;99.90;;;3.06;100.00;99431.06;5180221;28;20711;-64
2022/01/22 09:00:22;;;;;;;23.00;18.27;;;2.30;99.90;;;3.05;100.00;99431.75;5183042;28;20218;-65
2022/01/22 09:02:56;;;;;;;24.17;17.90;;;2.40;99.90;;;3.14;100.00;99429.38;5184044;28;20235;-66
2022/01/22 09:05:35;;;;;;;25.80;19.70;;;2.30;99.90;;;3.24;100.00;99421.19;5180086;28;20228;-66
2022/01/22 09:08:08;;;;;;;25.57;18.20;;;2.30;99.90;;;3.28;100.00;99420.78;5180037;28;20237;-65
2022/01/22 09:10:41;;;;;;;24.93;19.93;;;2.30;99.90;;;3.27;100.00;99416.47;5186286;28;20699;-65
2022/01/22 09:13:15;;;;;;;26.17;18.63;;;2.40;99.90;;;3.24;100.00;99428.78;5183944;28;20316;-64
2022/01/22 09:15:50;;;;;;;27.33;19.73;;;2.40;99.90;;;3.22;100.00;99432.75;5192156;28;20228;-67
2022/01/22 09:18:24;;;;;;;22.53;17.97;;;2.40;99.90;;;3.23;100.00;99442.13;5182313;28;20228;-66
2022/01/22 09:21:04;;;;;;;26.10;19.20;;;2.40;99.90;;;3.30;100.00;99442.06;5182798;28;20588;-66
2022/01/22 09:23:37;;;;;;;24.37;18.90;;;2.40;99.90;;;3.36;100.00;99437.69;5183693;28;20268;-65
2022/01/22 09:26:10;;;;;;;24.60;18.83;;;2.50;99.90;;;3.35;100.00;99435.91;5182773;28;20235;-63
2022/01/22 09:28:46;;;;;;;23.83;18.40;;;2.40;99.90;;;3.44;100.00;99441.97;5182487;28;20225;-63
2022/01/22 09:31:19;;;;;;;23.13;18.13;;;2.40;99.90;;;3.46;100.00;99447.19;5183457;28;20225;-64
2022/01/22 09:33:55;;;;;;;21.00;17.53;;;2.50;99.90;;;3.41;100.00;99450.84;5181486;28;20223;-64
2022/01/22 09:36:31;;;;;;;24.40;19.13;;;2.50;99.90;;;3.38;100.00;99453.94;5186253;28;20881;-64
2022/01/22 09:39:05;;;;;;;24.17;18.77;;;2.50;99.90;;;3.35;100.00;99457.03;5183258;28;20225;-64
2022/01/22 09:41:38;;;;;;;25.10;18.40;;;2.50;99.90;;;3.43;100.00;99455.31;5184406;28;20221;-64
2022/01/22 09:44:34;;;;;;;24.27;18.33;;;2.60;99.90;;;3.48;100.00;99454.19;5186300;28;20230;-64
2022/01/22 09:47:08;;;;;;;23.23;17.70;;;2.50;99.90;;;3.41;100.00;99460.97;5184312;28;20223;-64
2022/01/22 09:49:41;;;;;;;24.90;18.67;;;2.60;99.90;;;3.37;100.00;99469.81;5192742;28;20234;-65
2022/01/22 09:52:14;;;;;;;25.83;18.20;;;2.60;99.90;;;3.40;100.00;99465.09;5182354;28;20230;-64
2022/01/22 09:54:47;;;;;;;25.73;19.23;;;2.60;99.90;;;3.45;100.00;99463.97;5188975;28;20216;-64
2022/01/22 09:57:21;;;;;;;25.97;20.03;;;2.60;99.90;;;3.47;100.00;99467.59;5186989;28;20226;-64
2022/01/22 09:59:55;;;;;;;33.20;27.07;;;2.70;99.90;;;3.56;100.00;99461.00;5184085;28;20215;-64
2022/01/22 10:02:28;;;;;;;29.07;22.40;;;2.70;99.90;;;3.55;100.00;99466.81;5182212;28;20221;-64
2022/01/22 10:05:01;;;;;;;29.20;22.30;;;2.70;99.90;;;3.58;100.00;99472.19;5180504;28;20239;-64
2022/01/22 10:07:36;;;;;;;26.83;21.30;;;2.70;99.90;;;3.58;100.00;99477.25;5175910;28;20222;-64
2022/01/22 10:10:09;;;;;;;33.00;26.20;;;2.80;99.90;;;3.67;100.00;99477.34;5181058;28;20231;-64
2022/01/22 10:12:48;;;;;;;31.23;25.37;;;2.80;99.90;;;3.74;100.00;99472.22;5187183;28;20309;-64
2022/01/22 10:15:24;;;;;;;28.33;20.87;;;2.80;99.90;;;3.80;100.00;99474.53;5177861;28;20717;-63
2022/01/22 10:17:58;;;;;;;25.03;19.37;;;2.80;99.90;;;3.77;100.00;99476.72;5181075;28;20226;-64
2022/01/22 10:20:38;;;;;;;29.33;20.40;;;2.80;99.90;;;3.79;100.00;99476.16;5183758;28;20236;-65
2022/01/22 10:23:19;;;;;;;26.13;21.27;;;2.80;99.90;;;3.88;100.00;99483.84;5180838;28;20230;-64
2022/01/22 10:26:02;;;;;;;26.60;20.80;;;2.80;99.90;;;3.84;100.00;99476.69;5179581;28;20316;-64
2022/01/22 10:28:47;;;;;;;26.90;21.03;;;2.80;99.90;;;3.85;100.00;99478.47;5182018;28;20221;-64
2022/01/22 10:31:24;;;;;;;27.57;21.50;;;2.90;99.90;;;3.83;100.00;99480.84;5183426;28;20230;-65
2022/01/22 10:34:07;;;;;;;24.17;20.23;;;2.90;99.90;;;3.86;100.00;99480.25;5182666;28;20214;-63
2022/01/22 10:36:40;;;;;;;26.07;20.63;;;2.80;99.90;;;3.82;100.00;99475.59;5183672;28;20229;-64
2022/01/22 10:39:25;;;;;;;24.37;20.10;;;2.80;99.90;;;3.89;100.00;99470.47;5189785;28;20236;-64
2022/01/22 10:41:58;;;;;;;24.17;20.03;;;2.80;99.90;;;3.84;100.00;99462.41;5178341;28;20226;-65
2022/01/22 10:44:45;;;;;;;26.10;19.00;;;2.80;99.90;;;3.88;100.00;99452.59;5183090;28;20230;-64
2022/01/22 10:47:22;;;;;;;23.40;18.63;;;2.80;99.90;;;3.82;100.00;99452.84;5182172;28;20226;-64
2022/01/22 10:49:55;;;;;;;25.87;20.10;;;2.80;99.90;;;3.83;100.00;99455.56;5181178;28;20222;-64
2022/01/22 10:52:30;;;;;;;26.40;20.90;;;2.80;99.90;;;3.78;100.00;99450.72;5181528;28;20690;-63
2022/01/22 10:55:04;;;;;;;29.97;26.77;;;2.80;99.90;;;3.79;100.00;99449.97;5183230;28;20225;-65
2022/01/22 10:57:37;;;;;;;29.03;22.50;;;2.80;99.90;;;3.82;100.00;99456.25;5181716;28;20352;-64
2022/01/22 11:00:21;;;;;;;25.90;20.70;;;2.80;99.90;;;3.88;100.00;99447.56;5180489;28;20222;-63
2022/01/22 11:02:55;;;;;;;21.67;18.37;;;2.70;99.90;;;3.83;100.00;99434.41;5177217;28;20229;-65
2022/01/22 11:05:37;;;;;;;23.90;18.83;;;2.70;99.90;;;3.84;100.00;99446.31;5181312;28;20279;-63
2022/01/22 11:08:12;;;;;;;26.20;20.27;;;2.70;99.90;;;3.74;100.00;99439.34;5181847;28;20699;-65
2022/01/22 11:10:46;;;;;;;30.10;27.27;;;2.80;99.90;;;3.69;100.00;99437.06;5182669;28;20252;-64
2022/01/22 11:13:20;;;;;;;22.93;20.43;;;2.70;99.90;;;3.70;100.00;99439.75;5181617;28;20309;-64
2022/01/22 11:15:55;;;;;;;22.07;19.20;;;2.70;99.90;;;3.73;100.00;99435.03;5179827;28;20221;-65
2022/01/22 11:18:30;;;;;;;22.67;18.27;;;2.70;99.90;;;3.86;100.00;99441.41;5180443;28;20237;-64
2022/01/22 11:21:05;;;;;;;21.07;18.60;;;2.60;99.90;;;3.74;100.00;99446.94;5182231;28;20371;-64
2022/01/22 11:23:39;;;;;;;23.40;18.40;;;2.70;99.90;;;3.74;100.00;99446.94;5182077;28;20218;-65
2022/01/22 11:26:14;;;;;;;23.67;20.67;;;2.70;99.90;;;3.79;100.00;99447.44;5178273;28;20221;-65
2022/01/22 11:28:52;;;;;;;25.20;20.37;;;2.70;99.90;;;3.80;100.00;99455.19;5179783;28;20609;-65
2022/01/22 11:31:26;;;;;;;25.53;20.60;;;2.60;99.90;;;3.75;100.00;99450.34;5178322;28;20248;-64
2022/01/22 11:34:04;;;;;;;33.07;29.40;;;2.70;99.90;;;3.78;100.00;99455.78;5175098;28;20676;-63
2022/01/22 11:36:44;;;;;;;26.93;24.13;;;2.70;99.90;;;3.69;100.00;99459.81;5181983;28;20626;-65
2022/01/22 11:39:21;;;;;;;23.03;20.67;;;2.70;99.90;;;3.78;100.00;99455.78;5179551;28;20229;-64
2022/01/22 11:41:58;;;;;;;23.30;19.87;;;2.70;99.90;;;3.77;100.00;99456.50;5177709;28;20228;-64
2022/01/22 11:44:40;;;;;;;22.00;19.60;;;2.70;99.90;;;3.79;100.00;99462.63;5178202;28;20222;-65
2022/01/22 11:47:17;;;;;;;25.17;20.60;;;2.70;99.90;;;3.79;100.00;99461.00;5181181;28;20593;-64
2022/01/22 11:50:09;;;;;;;26.07;20.40;;;2.70;99.90;;;3.79;100.00;99444.94;5177913;28;20221;-65